Time;durP1;ratioP1;P1;durP2;ratioP2;P2;SDS_P1;SDS_P2;PMS_P1;PMS_P2;Temp;Humidity;BMP_temperature;BMP_pressure;BME280_temperature;BME280_humidity;BME280_pressure;Samples;Min_cycle;Max_cycle;Signal;HPM_P1;HPM_P2
2022/03/17 00:00:47;;;;;;;36.85;4.10;;;;;;;20.53;50.38;100554.13;7312829;19;129912;-38
2022/03/17 00:03:12;;;;;;;17.58;2.72;;;;;;;20.52;50.24;100547.25;7312784;19;130479;-38
2022/03/17 00:05:38;;;;;;;25.50;3.40;;;;;;;20.53;50.82;100554.97;7314636;19;129326;-39
2022/03/17 00:08:03;;;;;;;25.20;2.92;;;;;;;20.53;49.90;100556.75;7314668;19;128880;-40
2022/03/17 00:10:29;;;;;;;30.20;3.45;;;;;;;20.53;50.66;100564.59;7312192;19;130370;-37
2022/03/17 00:12:54;;;;;;;40.58;4.50;;;;;;;20.53;51.35;100569.81;7313588;19;129632;-38
2022/03/17 00:15:19;;;;;;;52.08;5.68;;;;;;;20.52;51.16;100565.53;7313963;19;129036;-41
2022/03/17 00:17:46;;;;;;;26.70;3.43;;;;;;;20.50;51.24;100565.66;7312583;19;154122;-41
2022/03/17 00:20:12;;;;;;;26.70;3.22;;;;;;;20.50;51.21;100578.72;7312802;19;130266;-41
2022/03/17 00:22:38;;;;;;;30.43;3.97;;;;;;;20.53;50.54;100564.59;7313222;19;129605;-41
2022/03/17 00:25:05;;;;;;;23.83;3.13;;;;;;;20.50;51.30;100559.59;7315472;19;129630;-41
2022/03/17 00:27:32;;;;;;;37.38;3.95;;;;;;;20.48;51.29;100557.09;7314084;19;129213;-40
2022/03/17 00:29:57;;;;;;;23.77;3.10;;;;;;;20.49;50.94;100556.13;7314033;19;129351;-41
2022/03/17 00:32:23;;;;;;;43.80;4.72;;;;;;;20.49;51.29;100548.28;7312094;19;135102;-40
2022/03/17 00:37:32;;;;;;;12.05;2.50;;;;;;;20.49;50.96;100537.03;7312075;19;129630;-41
2022/03/17 00:39:58;;;;;;;54.42;5.85;;;;;;;20.47;51.29;100537.16;7311500;19;158405;-41
2022/03/17 00:42:23;;;;;;;31.35;4.03;;;;;;;20.45;51.69;100530.34;7312322;19;130493;-39
2022/03/17 00:44:48;;;;;;;28.90;3.50;;;;;;;20.37;51.09;100517.84;7311875;19;154562;-40
2022/03/17 00:47:14;;;;;;;32.92;3.97;;;;;;;20.47;51.31;100528.47;7312044;19;129223;-41
2022/03/17 00:49:39;;;;;;;30.10;3.63;;;;;;;20.43;51.78;100525.25;7312405;19;130379;-41
2022/03/17 00:52:10;;;;;;;36.42;4.07;;;;;;;20.46;50.64;100521.59;7312162;19;136427;-40
2022/03/17 00:54:39;;;;;;;24.45;3.10;;;;;;;20.45;50.54;100519.91;7312801;19;128952;-40
2022/03/17 00:57:05;;;;;;;24.13;3.22;;;;;;;20.47;51.76;100520.63;7312651;19;129287;-38
2022/03/17 00:59:30;;;;;;;23.10;2.67;;;;;;;20.47;51.42;100525.84;7312508;19;129423;-40
2022/03/17 01:01:56;;;;;;;35.40;4.18;;;;;;;20.46;51.56;100519.78;7311523;19;153974;-38
2022/03/17 01:04:21;;;;;;;30.95;3.70;;;;;;;20.46;52.16;100511.13;7310593;19;154333;-39
2022/03/17 01:06:46;;;;;;;39.67;4.30;;;;;;;20.43;49.93;100509.56;7310687;19;156078;-38
2022/03/17 01:09:11;;;;;;;26.07;3.33;;;;;;;20.45;51.06;100510.28;7309251;19;159325;-39
2022/03/17 01:11:37;;;;;;;24.97;3.20;;;;;;;20.46;50.74;100505.91;7311299;19;158844;-38
2022/03/17 01:14:02;;;;;;;32.50;3.93;;;;;;;20.46;52.07;100505.91;7310908;19;153079;-38
2022/03/17 01:16:27;;;;;;;37.63;4.50;;;;;;;20.39;51.13;100500.31;7310547;19;154396;-39
2022/03/17 01:18:52;;;;;;;37.97;4.55;;;;;;;20.44;51.61;100502.56;7309579;19;135908;-39
2022/03/17 01:21:18;;;;;;;39.30;4.60;;;;;;;20.44;51.87;100503.38;7309446;19;158398;-39
2022/03/17 01:23:43;;;;;;;27.53;3.40;;;;;;;20.44;51.86;100511.22;7310120;19;154532;-38
2022/03/17 01:26:08;;;;;;;35.17;4.33;;;;;;;20.43;51.52;100511.34;7311049;19;153903;-39
2022/03/17 01:28:33;;;;;;;23.63;3.23;;;;;;;20.41;51.26;100503.63;7311462;19;158429;-38
2022/03/17 01:30:59;;;;;;;37.43;4.67;;;;;;;20.38;52.09;100503.84;7307208;19;159204;-39
2022/03/17 01:33:24;;;;;;;33.23;3.93;;;;;;;20.42;51.64;100494.00;7310009;19;154774;-39
2022/03/17 01:35:49;;;;;;;37.33;4.10;;;;;;;20.41;52.07;100508.03;7309998;19;154794;-39
2022/03/17 01:38:14;;;;;;;21.90;3.20;;;;;;;20.33;51.42;100499.88;7307898;19;159065;-39
2022/03/17 01:40:40;;;;;;;19.45;2.58;;;;;;;20.40;51.75;100504.56;7309800;19;158615;-38
2022/03/17 01:43:06;;;;;;;17.43;2.93;;;;;;;20.30;51.67;100494.88;7312508;19;130263;-38
2022/03/17 01:45:31;;;;;;;44.33;5.45;;;;;;;20.39;51.67;100510.75;7310092;19;129655;-38
2022/03/17 01:47:57;;;;;;;42.95;4.68;;;;;;;20.40;52.05;100511.56;7310706;19;158094;-39
2022/03/17 01:50:22;;;;;;;30.85;3.75;;;;;;;20.40;52.30;100511.56;7309264;19;130883;-40
2022/03/17 01:52:48;;;;;;;35.28;4.35;;;;;;;20.41;51.81;100510.63;7310615;19;128948;-38
2022/03/17 01:55:14;;;;;;;25.40;3.10;;;;;;;20.41;52.50;100515.84;7310709;19;154803;-39
2022/03/17 01:57:41;;;;;;;24.48;3.30;;;;;;;20.41;51.18;100513.25;7309709;19;131177;-38
2022/03/17 02:00:09;;;;;;;32.47;4.20;;;;;;;20.27;51.63;100503.78;7307334;19;129345;-39
2022/03/17 02:02:34;;;;;;;22.45;3.38;;;;;;;20.38;52.74;100518.66;7312039;19;129611;-38
2022/03/17 02:05:03;;;;;;;47.90;4.68;;;;;;;20.40;52.05;100516.78;7309079;19;154235;-39
2022/03/17 02:07:28;;;;;;;35.40;4.05;;;;;;;20.27;51.59;100495.09;7310959;19;130194;-39
2022/03/17 02:09:54;;;;;;;29.38;3.92;;;;;;;20.39;51.48;100515.13;7307084;19;129696;-41
2022/03/17 02:15:08;;;;;;;39.88;4.90;;;;;;;20.37;52.73;100501.34;7311222;19;129383;-41
2022/03/17 02:17:39;;;;;;;22.80;3.03;;;;;;;20.37;52.81;100506.56;7310588;19;130296;-41
2022/03/17 02:20:06;;;;;;;28.92;3.55;;;;;;;20.38;52.10;100505.59;7309095;19;130487;-42
2022/03/17 02:22:34;;;;;;;46.88;4.93;;;;;;;20.36;52.26;100504.91;7310525;19;129743;-40
2022/03/17 02:27:45;;;;;;;46.75;4.78;;;;;;;20.36;52.69;100491.84;7311158;19;129317;-40
2022/03/17 02:30:12;;;;;;;27.17;3.20;;;;;;;20.35;52.52;100492.78;7308854;19;130660;-41
2022/03/17 02:32:38;;;;;;;39.70;4.22;;;;;;;20.28;52.80;100475.91;7309729;19;129185;-41
2022/03/17 02:35:09;;;;;;;40.42;4.72;;;;;;;20.37;52.74;100496.97;7311084;19;129382;-41
2022/03/17 02:37:35;;;;;;;25.77;3.40;;;;;;;20.35;51.57;100490.16;7308697;19;132254;-38
2022/03/17 02:40:04;;;;;;;35.45;4.45;;;;;;;20.36;52.43;100491.84;7308684;19;130840;-42
2022/03/17 02:42:30;;;;;;;39.25;4.40;;;;;;;20.35;52.26;100482.31;7308800;19;129588;-40
2022/03/17 02:44:57;;;;;;;41.53;4.50;;;;;;;20.35;52.11;100484.94;7310340;19;129085;-40
2022/03/17 02:47:23;;;;;;;24.33;3.42;;;;;;;20.35;52.43;100482.31;7310069;19;130273;-40
2022/03/17 02:49:49;;;;;;;34.78;4.20;;;;;;;20.35;52.78;100487.56;7307687;19;130011;-40
2022/03/17 02:52:14;;;;;;;38.30;4.17;;;;;;;20.33;51.07;100478.97;7308849;19;132114;-40
2022/03/17 02:54:39;;;;;;;21.73;3.20;;;;;;;20.32;52.79;100483.41;7309203;19;154350;-41
2022/03/17 02:57:06;;;;;;;22.53;3.10;;;;;;;20.31;52.16;100471.25;7308187;19;159699;-41
2022/03/17 02:59:31;;;;;;;35.38;3.88;;;;;;;20.32;52.51;100477.34;7308844;19;129732;-40
2022/03/17 03:01:57;;;;;;;48.92;5.57;;;;;;;20.32;52.93;100482.56;7308041;19;154391;-39
2022/03/17 03:04:22;;;;;;;33.70;4.03;;;;;;;20.32;52.59;100477.34;7307637;19;154045;-40
2022/03/17 03:06:47;;;;;;;32.67;3.88;;;;;;;20.32;51.17;100477.34;7308016;19;159786;-42
2022/03/17 03:09:13;;;;;;;37.65;4.00;;;;;;;20.31;52.55;100473.06;7306430;19;158482;-40
2022/03/17 03:11:38;;;;;;;38.67;4.33;;;;;;;20.30;52.49;100479.22;7311116;19;128976;-41
2022/03/17 03:14:07;;;;;;;38.83;4.38;;;;;;;20.29;52.17;100483.63;7314501;19;155414;-42
2022/03/17 03:16:33;;;;;;;36.67;4.20;;;;;;;20.31;52.44;100480.91;7315957;19;130262;-42
2022/03/17 03:18:58;;;;;;;34.80;4.43;;;;;;;20.32;52.94;100482.56;7314314;19;129585;-41
2022/03/17 03:21:23;;;;;;;48.92;5.32;;;;;;;20.31;53.09;100470.44;7314268;19;154503;-39
2022/03/17 03:23:49;;;;;;;26.17;3.42;;;;;;;20.31;52.85;100480.91;7314781;19;153702;-41
2022/03/17 03:26:14;;;;;;;27.15;3.50;;;;;;;20.31;52.15;100471.25;7316503;19;139832;-42
2022/03/17 03:28:39;;;;;;;30.42;3.67;;;;;;;20.31;53.12;100478.28;7315735;19;133777;-41
2022/03/17 03:31:06;;;;;;;48.83;5.30;;;;;;;20.29;53.03;100477.56;7316746;19;131012;-41
2022/03/17 03:33:31;;;;;;;20.58;2.83;;;;;;;20.29;52.63;100472.34;7315663;19;129096;-40
2022/03/17 03:38:40;;;;;;;32.65;4.05;;;;;;;20.27;52.53;100472.44;7315984;19;129953;-41
2022/03/17 03:41:05;;;;;;;25.42;3.35;;;;;;;20.29;52.87;100474.94;7315324;19;154529;-41
2022/03/17 03:43:32;;;;;;;22.85;3.17;;;;;;;20.18;52.87;100462.66;7312468;19;154315;-40
2022/03/17 03:45:58;;;;;;;;;;;;;;;20.32;53.25;100472.09;7316138;19;130352;-41
2022/03/17 03:48:23;;;;;;;48.17;5.28;;;;;;;20.27;52.76;100475.06;7315894;19;130891;-41
2022/03/17 03:50:48;;;;;;;36.37;4.67;;;;;;;20.24;52.50;100464.00;7311618;19;154780;-40
2022/03/17 03:53:13;;;;;;;45.73;5.27;;;;;;;20.26;53.09;100475.16;7311970;19;154828;-41
2022/03/17 03:55:39;;;;;;;33.20;3.83;;;;;;;20.28;52.58;100473.28;7313774;19;157552;-40
2022/03/17 03:58:04;;;;;;;30.00;4.03;;;;;;;20.28;51.25;100476.72;7313939;19;139325;-41
2022/03/17 04:02:58;;;;;;;31.83;3.80;;;;;;;20.21;52.41;100464.22;7312292;19;131307;-41
2022/03/17 04:05:27;;;;;;;70.65;6.75;;;;;;;20.25;53.30;100470.88;7313057;19;130394;-39
2022/03/17 04:07:55;;;;;;;23.35;3.22;;;;;;;20.25;53.14;100476.09;7316364;19;130756;-41
2022/03/17 04:10:20;;;;;;;11.68;2.63;;;;;;;20.25;52.80;100476.94;7308014;19;130657;-38
2022/03/17 04:12:49;;;;;;;37.17;4.15;;;;;;;20.26;52.74;100475.97;7312632;19;129298;-38
2022/03/17 04:15:14;;;;;;;38.58;4.85;;;;;;;20.27;52.32;100479.44;7313831;19;130571;-41
2022/03/17 04:17:39;;;;;;;30.73;3.83;;;;;;;20.28;52.53;100491.56;7312518;19;129927;-37
2022/03/17 04:20:09;;;;;;;31.58;3.85;;;;;;;20.27;53.42;100487.28;7308929;19;154529;-40
2022/03/17 04:22:34;;;;;;;111.75;10.18;;;;;;;20.27;52.71;100489.88;7310200;19;128939;-40
2022/03/17 04:24:59;;;;;;;37.90;4.47;;;;;;;20.27;52.88;100484.66;7310764;19;130438;-38
2022/03/17 04:27:25;;;;;;;29.42;3.47;;;;;;;20.26;52.91;100481.19;7311926;19;159398;-38
2022/03/17 04:29:50;;;;;;;16.05;2.83;;;;;;;20.16;52.88;100467.13;7311360;19;154506;-40
2022/03/17 04:32:15;;;;;;;38.97;4.82;;;;;;;20.26;53.40;100475.16;7313801;19;129745;-38
2022/03/17 04:34:41;;;;;;;22.10;3.13;;;;;;;20.25;53.43;100481.31;7314311;19;130438;-39
2022/03/17 04:37:06;;;;;;;31.73;3.83;;;;;;;20.25;52.39;100483.94;7311934;19;159910;-37
2022/03/17 04:39:32;;;;;;;22.27;3.25;;;;;;;20.26;52.51;100472.56;7312023;19;130037;-38
2022/03/17 04:41:57;;;;;;;38.13;4.40;;;;;;;20.24;52.32;100474.44;7314119;19;129094;-39
2022/03/17 04:44:24;;;;;;;37.80;4.60;;;;;;;20.19;53.39;100466.94;7311981;19;148894;-40
2022/03/17 04:46:49;;;;;;;33.67;4.00;;;;;;;20.24;53.10;100474.44;7314588;19;130407;-39
2022/03/17 04:49:15;;;;;;;10.05;2.33;;;;;;;20.24;53.28;100471.81;7313174;19;133347;-39
2022/03/17 04:51:40;;;;;;;28.40;3.60;;;;;;;20.22;52.94;100477.16;7313170;19;155743;-38
2022/03/17 04:54:06;;;;;;;44.03;5.03;;;;;;;20.22;52.80;100471.09;7309978;19;158415;-38
2022/03/17 04:56:31;;;;;;;22.45;3.28;;;;;;;20.18;52.86;100467.88;7313198;19;130348;-39
2022/03/17 04:58:56;;;;;;;37.63;4.90;;;;;;;20.21;52.98;100474.66;7309467;19;154874;-39
2022/03/17 05:01:23;;;;;;;36.03;4.32;;;;;;;20.21;53.38;100475.47;7312830;19;129071;-38
2022/03/17 05:03:48;;;;;;;40.72;4.80;;;;;;;20.22;52.53;100469.31;7313679;19;130201;-38
2022/03/17 05:06:14;;;;;;;36.47;4.38;;;;;;;20.21;53.45;100470.25;7311649;19;130518;-38
2022/03/17 05:08:40;;;;;;;30.67;3.73;;;;;;;20.12;52.47;100454.38;7311618;19;129209;-39
2022/03/17 05:11:10;;;;;;;18.65;2.58;;;;;;;20.10;50.69;100461.47;7311717;19;129217;-39
2022/03/17 05:13:37;;;;;;;21.23;2.88;;;;;;;19.94;49.45;100460.91;7312380;19;130207;-39
2022/03/17 05:16:06;;;;;;;44.80;5.50;;;;;;;19.88;48.32;100471.78;7311923;19;129244;-39
2022/03/17 05:18:33;;;;;;;21.80;3.00;;;;;;;19.89;48.36;100460.41;7309307;19;129700;-38
2022/03/17 05:20:58;;;;;;;35.07;3.87;;;;;;;20.03;51.19;100465.50;7310427;19;130836;-39
2022/03/17 05:23:24;;;;;;;34.55;4.03;;;;;;;20.10;51.84;100469.31;7311966;19;129570;-40
2022/03/17 05:25:50;;;;;;;30.92;3.97;;;;;;;20.15;51.63;100475.91;7309985;19;129151;-40
2022/03/17 05:28:16;;;;;;;40.40;4.25;;;;;;;20.20;52.41;100480.81;7312890;19;129436;-40
2022/03/17 05:30:43;;;;;;;65.20;6.47;;;;;;;20.09;52.15;100462.44;7305902;19;130529;-38
2022/03/17 05:33:11;;;;;;;23.58;3.60;;;;;;;20.21;52.64;100485.09;7309962;19;129616;-40
2022/03/17 05:35:37;;;;;;;10.20;2.72;;;;;;;20.19;52.59;100482.59;7306917;19;131019;-40
2022/03/17 05:38:02;;;;;;;34.57;4.03;;;;;;;20.21;52.39;100490.31;7310373;19;129417;-40
2022/03/17 05:40:28;;;;;;;66.15;6.78;;;;;;;20.22;52.67;100484.16;7309955;19;129028;-40
2022/03/17 05:42:56;;;;;;;31.45;4.35;;;;;;;20.23;52.50;100488.44;7309792;19;130361;-39
2022/03/17 05:45:25;;;;;;;54.50;6.25;;;;;;;20.22;52.68;100486.75;7311245;19;132948;-40
2022/03/17 05:47:52;;;;;;;40.03;4.63;;;;;;;20.21;52.46;100485.91;7311480;19;129052;-40
2022/03/17 05:50:21;;;;;;;59.53;6.03;;;;;;;20.20;53.17;100483.41;7307438;19;129553;-40
2022/03/17 05:52:47;;;;;;;31.25;4.38;;;;;;;20.22;53.35;100487.59;7311692;19;130375;-39
2022/03/17 05:55:15;;;;;;;42.53;5.07;;;;;;;20.22;52.84;100486.75;7309910;19;129947;-36
2022/03/17 05:57:43;;;;;;;41.60;4.82;;;;;;;20.23;52.17;100498.88;7310174;19;130765;-40
2022/03/17 06:00:11;;;;;;;42.22;4.68;;;;;;;20.22;52.83;100487.59;7308589;19;129733;-40
2022/03/17 06:02:37;;;;;;;51.88;5.97;;;;;;;20.22;51.87;100486.75;7307972;19;132414;-41
2022/03/17 06:05:03;;;;;;;52.33;5.57;;;;;;;20.21;53.17;100485.91;7309438;19;129570;-42
2022/03/17 06:07:42;;;;;;;45.75;5.53;;;;;;;20.22;52.16;100486.75;7308621;19;131428;-41
2022/03/17 06:10:11;;;;;;;25.33;3.88;;;;;;;20.19;52.86;100487.81;7307379;19;130956;-40
2022/03/17 06:12:36;;;;;;;62.85;6.13;;;;;;;20.23;53.13;100488.44;7308887;19;130782;-41
2022/03/17 06:15:03;;;;;;;23.27;3.60;;;;;;;20.22;53.11;100486.75;7307454;19;130547;-40
2022/03/17 06:17:48;;;;;;;35.17;4.60;;;;;;;20.23;53.85;100485.84;7309571;19;129008;-38
2022/03/17 06:20:16;;;;;;;37.88;4.80;;;;;;;20.20;52.34;100489.47;7305668;19;131029;-39
2022/03/17 06:22:44;;;;;;;49.75;5.10;;;;;;;20.17;52.24;100484.50;7309426;19;130329;-37
2022/03/17 06:25:11;;;;;;;46.80;5.22;;;;;;;20.19;53.32;100485.22;7304484;19;130688;-41
2022/03/17 06:27:37;;;;;;;41.20;4.45;;;;;;;20.19;53.57;100492.22;7305160;19;129318;-40
2022/03/17 06:30:08;;;;;;;27.52;4.20;;;;;;;20.20;53.58;100494.72;7306123;19;129732;-39
2022/03/17 06:32:34;;;;;;;21.25;3.47;;;;;;;20.20;53.16;100494.72;7309453;19;130057;-41
2022/03/17 06:35:00;;;;;;;32.85;4.35;;;;;;;20.20;53.17;100504.31;7309186;19;130318;-40
2022/03/17 06:37:25;;;;;;;51.67;5.60;;;;;;;20.19;53.32;100497.44;7310721;19;129202;-41
2022/03/17 06:39:51;;;;;;;28.25;3.83;;;;;;;20.20;52.36;100493.84;7307689;19;129684;-40
2022/03/17 06:42:16;;;;;;;23.85;3.70;;;;;;;20.21;53.24;100480.69;7308523;19;158299;-40
2022/03/17 06:44:41;;;;;;;25.42;3.47;;;;;;;20.21;53.00;100488.53;7308961;19;130639;-40
2022/03/17 06:47:07;;;;;;;21.83;3.40;;;;;;;20.19;52.83;100493.06;7315771;19;155073;-38
2022/03/17 06:49:32;;;;;;;45.55;5.07;;;;;;;20.19;53.48;100492.22;7316559;19;129019;-40
2022/03/17 06:51:58;;;;;;;51.63;5.78;;;;;;;20.12;52.66;100475.25;7316647;19;134704;-39
2022/03/17 06:54:24;;;;;;;32.45;4.13;;;;;;;20.19;53.73;100492.22;7317917;19;131182;-41
2022/03/17 06:56:49;;;;;;;22.45;3.40;;;;;;;20.17;52.89;100494.09;7316385;19;129150;-40
2022/03/17 06:59:14;;;;;;;42.37;4.93;;;;;;;20.16;52.65;100498.47;7313421;19;154086;-40
2022/03/17 07:01:39;;;;;;;25.63;3.57;;;;;;;20.15;53.40;100496.81;7315524;19;159046;-41
2022/03/17 07:04:05;;;;;;;29.92;4.00;;;;;;;20.15;52.95;100501.19;7314481;19;150194;-39
2022/03/17 07:06:30;;;;;;;26.65;4.05;;;;;;;20.17;51.86;100512.34;7315742;19;155076;-40
2022/03/17 07:08:55;;;;;;;26.37;3.57;;;;;;;20.17;53.34;100510.59;7314520;19;155249;-40
2022/03/17 07:11:21;;;;;;;20.90;3.17;;;;;;;20.18;53.29;100514.03;7314691;19;157413;-40
2022/03/17 07:13:47;;;;;;;24.58;3.28;;;;;;;20.08;53.84;100499.94;7316733;19;130418;-41
2022/03/17 07:16:13;;;;;;;32.45;4.15;;;;;;;20.16;52.05;100513.31;7316529;19;129129;-39
2022/03/17 07:18:38;;;;;;;36.58;4.78;;;;;;;20.15;53.51;100502.03;7316000;19;128815;-39
2022/03/17 07:21:03;;;;;;;34.65;4.55;;;;;;;20.13;52.64;100514.31;7315693;19;129504;-41
2022/03/17 07:23:29;;;;;;;19.42;3.45;;;;;;;20.13;53.20;100509.09;7315787;19;130400;-41
2022/03/17 07:25:54;;;;;;;38.00;4.75;;;;;;;20.14;53.42;100515.16;7314571;19;129013;-41
2022/03/17 07:28:21;;;;;;;37.15;4.72;;;;;;;20.12;52.83;100528.31;7316458;19;128981;-40
2022/03/17 07:30:46;;;;;;;38.53;4.22;;;;;;;20.11;53.79;100525.81;7313936;19;130752;-38
2022/03/17 07:33:12;;;;;;;15.73;2.70;;;;;;;20.09;53.67;100527.69;7315051;19;129429;-40
2022/03/17 07:35:38;;;;;;;40.65;4.55;;;;;;;20.13;53.88;100529.16;7315658;19;129158;-41
2022/03/17 07:38:04;;;;;;;54.78;6.40;;;;;;;20.14;54.04;100530.81;7312828;19;154057;-41
2022/03/17 07:40:29;;;;;;;31.95;4.38;;;;;;;20.14;52.46;100530.81;7312434;19;130743;-40
2022/03/17 07:42:54;;;;;;;27.00;3.65;;;;;;;20.12;52.24;100538.75;7315030;19;129199;-39
2022/03/17 07:45:20;;;;;;;38.67;4.95;;;;;;;20.13;53.51;100539.59;7315886;19;129238;-40
2022/03/17 07:47:46;;;;;;;50.33;5.10;;;;;;;20.11;53.25;100551.94;7312652;19;153997;-41
2022/03/17 07:50:12;;;;;;;28.90;3.97;;;;;;;20.10;53.12;100552.84;7299680;19;130620;-40
2022/03/17 07:52:38;;;;;;;26.95;3.78;;;;;;;20.16;53.11;100558.50;7314620;19;131271;-41
2022/03/17 07:55:04;;;;;;;25.17;3.63;;;;;;;20.17;52.46;100567.19;7316971;19;130271;-41
2022/03/17 07:57:29;;;;;;;39.97;4.80;;;;;;;20.13;52.97;100555.28;7312580;19;129100;-39
2022/03/17 07:59:54;;;;;;;29.85;4.13;;;;;;;20.14;52.42;100564.75;7311436;19;158591;-41
2022/03/17 08:02:20;;;;;;;30.23;3.75;;;;;;;20.13;52.27;100555.28;7314375;19;130244;-40
2022/03/17 08:04:48;;;;;;;34.60;4.13;;;;;;;20.10;52.95;100563.28;7314551;19;129217;-40
2022/03/17 08:07:13;;;;;;;19.38;3.20;;;;;;;20.09;53.25;100570.31;7313211;19;129209;-39
2022/03/17 08:09:39;;;;;;;21.05;3.38;;;;;;;20.13;53.67;100570.94;7313427;19;129594;-40
2022/03/17 08:12:05;;;;;;;37.42;4.47;;;;;;;20.10;52.54;100571.13;7314660;19;130976;-41
2022/03/17 08:14:31;;;;;;;35.73;4.80;;;;;;;20.14;52.43;100583.03;7314649;19;129386;-38
2022/03/17 08:16:56;;;;;;;30.52;4.15;;;;;;;20.09;53.35;100567.69;7314866;19;130292;-40
2022/03/17 08:19:22;;;;;;;33.50;4.72;;;;;;;20.04;52.49;100550.69;7313183;19;130693;-40
2022/03/17 08:21:47;;;;;;;32.63;4.65;;;;;;;20.11;53.63;100570.19;7314903;19;130295;-41
2022/03/17 08:24:13;;;;;;;31.15;4.32;;;;;;;20.11;53.55;100567.59;7312879;19;154671;-40
2022/03/17 08:26:39;;;;;;;23.63;3.30;;;;;;;20.10;52.82;100571.97;7315287;19;129299;-40
2022/03/17 08:29:05;;;;;;;18.83;3.63;;;;;;;20.11;53.41;100570.19;7313633;19;130231;-40
2022/03/17 08:31:31;;;;;;;37.10;4.43;;;;;;;20.04;53.06;100555.91;7313954;19;129861;-40
2022/03/17 08:33:59;;;;;;;35.00;4.53;;;;;;;20.09;53.72;100570.31;7312073;19;129828;-41
2022/03/17 08:36:25;;;;;;;24.30;3.80;;;;;;;20.10;53.40;100576.34;7314860;19;129387;-41
2022/03/17 08:38:51;;;;;;;32.17;4.30;;;;;;;20.09;53.76;100579.91;7313086;19;130191;-40
2022/03/17 08:41:17;;;;;;;25.95;3.85;;;;;;;20.03;53.28;100559.47;7314758;19;129328;-40
2022/03/17 08:43:43;;;;;;;20.20;3.07;;;;;;;20.06;54.16;100574.91;7313765;19;129144;-38
2022/03/17 08:51:36;;;;;;;26.75;3.60;;;;;;;20.07;54.26;100576.56;7313905;19;129117;-40
2022/03/17 08:54:01;;;;;;;41.53;5.07;;;;;;;20.07;52.54;100572.19;7314783;19;128949;-39
2022/03/17 08:56:28;;;;;;;41.45;4.95;;;;;;;20.09;52.19;100575.53;7311419;19;129456;-41
2022/03/17 08:58:53;;;;;;;;;;;;;;;20.13;53.83;100570.94;7313827;19;130140;-38
2022/03/17 09:01:18;;;;;;;27.80;3.80;;;;;;;20.09;53.02;100565.09;7313137;19;157835;-40
2022/03/17 09:03:44;;;;;;;19.73;3.23;;;;;;;20.08;53.20;100567.81;7312990;19;155019;-40
2022/03/17 09:06:10;;;;;;;29.90;3.88;;;;;;;20.09;53.92;100566.84;7312690;19;129225;-41
2022/03/17 09:08:35;;;;;;;19.08;3.47;;;;;;;20.07;53.38;100566.13;7313336;19;130330;-40
2022/03/17 09:11:01;;;;;;;47.97;5.57;;;;;;;20.07;52.89;100581.78;7311915;19;159039;-41
2022/03/17 09:13:28;;;;;;;44.80;5.45;;;;;;;20.07;52.71;100579.16;7309967;19;150933;-41
2022/03/17 09:15:55;;;;;;;35.35;4.68;;;;;;;20.06;52.46;100580.97;7312125;19;128972;-39
2022/03/17 09:18:21;;;;;;;34.13;4.35;;;;;;;20.07;53.13;100580.03;7312333;19;130731;-40
2022/03/17 09:20:47;;;;;;;26.00;4.32;;;;;;;20.06;53.87;100580.13;7309265;19;130520;-40
2022/03/17 09:23:12;;;;;;;24.95;4.10;;;;;;;20.12;52.68;100590.13;7313966;19;129102;-39
2022/03/17 09:25:38;;;;;;;23.20;3.40;;;;;;;20.09;53.63;100582.50;7313465;19;129540;-39
2022/03/17 09:28:04;;;;;;;39.67;4.65;;;;;;;20.01;52.99;100577.00;7312928;19;130570;-41
2022/03/17 09:30:30;;;;;;;32.03;4.40;;;;;;;20.09;52.83;100590.34;7310724;19;129227;-41
2022/03/17 09:32:55;;;;;;;41.58;5.30;;;;;;;20.07;54.02;100592.22;7312038;19;128896;-40
2022/03/17 09:35:22;;;;;;;29.73;4.05;;;;;;;20.05;52.50;100578.44;7312824;19;129109;-41
2022/03/17 09:37:47;;;;;;;18.57;3.10;;;;;;;20.05;52.96;100588.88;7312286;19;130245;-40
2022/03/17 09:40:14;;;;;;;11.95;2.65;;;;;;;20.06;53.37;100580.13;7310024;19;129206;-40
2022/03/17 09:42:40;;;;;;;43.55;5.10;;;;;;;20.06;53.13;100580.13;7312440;19;129019;-41
2022/03/17 09:45:07;;;;;;;26.05;3.58;;;;;;;19.95;54.25;100564.38;7312755;19;128945;-41
2022/03/17 09:47:36;;;;;;;28.00;3.95;;;;;;;20.04;54.39;100592.44;7311714;19;130051;-41
2022/03/17 09:50:02;;;;;;;26.75;3.92;;;;;;;20.02;53.40;100589.09;7310283;19;130420;-41
2022/03/17 09:52:29;;;;;;;43.00;4.95;;;;;;;20.07;53.20;100587.00;7312446;19;129761;-40
2022/03/17 09:54:54;;;;;;;27.15;3.90;;;;;;;20.07;52.65;100587.00;7312261;19;129016;-41
2022/03/17 09:57:21;;;;;;;23.08;3.65;;;;;;;20.10;52.97;100587.63;7309689;19;159139;-40
2022/03/17 09:59:53;;;;;;;45.03;4.93;;;;;;;20.05;53.19;100584.50;7310151;19;130311;-41
2022/03/17 10:02:20;;;;;;;24.02;3.75;;;;;;;20.03;54.05;100596.00;7311507;19;128934;-41
2022/03/17 10:04:47;;;;;;;21.90;3.47;;;;;;;20.06;53.85;100601.84;7312693;19;129437;-40
2022/03/17 10:07:14;;;;;;;34.65;4.35;;;;;;;20.05;53.64;100602.78;7311712;19;130532;-41
2022/03/17 10:09:39;;;;;;;46.83;5.47;;;;;;;20.04;54.23;100605.50;7310563;19;131150;-41
2022/03/17 10:12:10;;;;;;;22.88;3.08;;;;;;;20.05;54.63;100599.31;7310264;19;129319;-40
2022/03/17 10:14:40;;;;;;;20.67;3.30;;;;;;;19.96;52.18;100581.69;7311187;19;130702;-40
2022/03/17 10:17:10;;;;;;;31.33;4.20;;;;;;;20.04;53.27;100602.88;7310892;19;129571;-40
2022/03/17 10:19:36;;;;;;;56.75;6.25;;;;;;;20.05;52.64;100599.31;7308373;19;130909;-40
2022/03/17 10:22:14;;;;;;;27.17;4.67;;;;;;;20.03;54.36;100591.59;7310268;19;129194;-38
2022/03/17 10:24:52;;;;;;;25.55;3.63;;;;;;;19.92;53.89;100580.22;7311498;19;129138;-41
2022/03/17 10:27:36;;;;;;;23.10;3.45;;;;;;;20.05;54.73;100605.38;7311035;19;130457;-40
2022/03/17 10:30:06;;;;;;;28.92;4.13;;;;;;;20.02;52.94;100600.38;7309759;19;129656;-42
2022/03/17 10:32:32;;;;;;;21.17;3.55;;;;;;;20.02;53.99;100605.59;7310670;19;129722;-41
2022/03/17 10:34:57;;;;;;;33.72;4.32;;;;;;;20.03;52.60;100612.47;7310633;19;129271;-40
2022/03/17 10:37:25;;;;;;;37.00;4.82;;;;;;;20.01;53.92;100605.72;7307824;19;158512;-39
2022/03/17 10:39:51;;;;;;;32.75;4.03;;;;;;;20.05;52.64;100607.16;7309402;19;129671;-39
2022/03/17 10:42:19;;;;;;;20.55;3.47;;;;;;;20.03;53.28;100603.84;7309127;19;155368;-39
2022/03/17 10:44:47;;;;;;;26.98;3.70;;;;;;;19.94;53.07;100600.06;7311265;19;129273;-39
2022/03/17 10:47:13;;;;;;;37.50;4.80;;;;;;;20.00;53.29;100606.66;7309369;19;130615;-37
2022/03/17 10:49:38;;;;;;;22.85;3.30;;;;;;;20.00;53.57;100606.66;7309824;19;129005;-40
2022/03/17 10:52:04;;;;;;;25.77;3.85;;;;;;;19.87;54.23;100595.34;7310811;19;128992;-39
2022/03/17 10:54:29;;;;;;;30.93;4.27;;;;;;;20.01;53.37;100611.78;7311540;19;129082;-40
2022/03/17 10:57:09;;;;;;;27.42;4.20;;;;;;;20.01;54.69;100613.53;7310200;19;130212;-40
2022/03/17 10:59:37;;;;;;;78.10;7.57;;;;;;;20.01;54.02;100616.16;7302108;19;131023;-40
2022/03/17 11:02:06;;;;;;;25.88;3.92;;;;;;;20.01;54.23;100613.53;7308115;19;130528;-41
2022/03/17 11:04:33;;;;;;;16.00;2.78;;;;;;;20.02;53.37;100607.38;7310478;19;128976;-40
2022/03/17 11:06:58;;;;;;;31.80;4.20;;;;;;;20.01;53.48;100611.78;7309031;19;130110;-40
2022/03/17 11:09:25;;;;;;;40.33;4.93;;;;;;;20.03;52.89;100609.88;7308682;19;129654;-40
2022/03/17 11:11:51;;;;;;;27.85;3.80;;;;;;;20.02;54.36;100610.81;7309979;19;129362;-40
2022/03/17 11:14:18;;;;;;;41.77;4.97;;;;;;;20.00;54.16;100604.88;7308617;19;129439;-40
2022/03/17 11:16:47;;;;;;;;;;;;;;;20.03;54.34;100609.06;7309965;19;130135;-41
2022/03/17 11:19:15;;;;;;;;;;;;;;;20.02;54.93;100610.81;7309538;19;129301;-39
2022/03/17 11:21:46;;;;;;;24.55;3.55;;;;;;;19.90;54.36;100595.19;7309876;19;129039;-41
2022/03/17 11:24:18;;;;;;;22.42;3.67;;;;;;;20.00;54.34;100612.69;7310201;19;128955;-40